CPA784 WADD-VHHH
Flight info
| Callsign | CPA784 |
|---|---|
| Flight time | N/A |
| Altitude | 36000 |
| Route | DOBM1A/09 DOBMA M522 ELANG/N0490F370 R223 BRU/N0487F380 L649 DAKIX/N0489F370 L649 LAXOR/N0486F380 M772 ASOBA/N0483F390 M772 DULOP Q1 CARSO/N0484F380 V551 BETTY |
| Aircraft | B77W/H-SDE1E2E3FGHIJ2J3J4J5M1RWXY/LB1D1 |
Departure
| Time | N/A |
|---|---|
| Airport | Denpasar I Gusti Ngurah Rai International Airport (WADD) |
Arrival
| Time | 2026-04-30 08:52 |
|---|---|
| Airport | Hong Kong International Airport (VHHH) |
| Time | Latitude | Longitude | Altitude | Speed | Heading |
|---|---|---|---|---|---|
| 2026-04-30 08:13 | -1.05429 | 114.83798 | 35801 ft | 493 kts | 359° |
| 2026-04-30 08:13 | -0.91704 | 114.83370 | 35798 ft | 494 kts | 359° |
| 2026-04-30 08:14 | -0.64181 | 114.83603 | 35800 ft | 494 kts | 1° |
| 2026-04-30 08:14 | -0.36671 | 114.83797 | 35808 ft | 494 kts | 1° |
| 2026-04-30 08:15 | -0.09174 | 114.83996 | 35812 ft | 493 kts | 1° |
| 2026-04-30 08:15 | 0.18091 | 114.84194 | 35823 ft | 492 kts | 1° |
| 2026-04-30 08:16 | 0.45472 | 114.84392 | 35816 ft | 491 kts | 1° |
| 2026-04-30 08:16 | 0.72797 | 114.84589 | 35815 ft | 491 kts | 1° |
| 2026-04-30 08:17 | 1.07629 | 114.84842 | 35820 ft | 490 kts | 1° |
| 2026-04-30 08:17 | 2.05888 | 114.85556 | 35822 ft | 491 kts | 1° |
| 2026-04-30 08:17 | 2.62223 | 114.86027 | 37878 ft | 512 kts | 1° |
| 2026-04-30 08:18 | 3.19225 | 114.86504 | 37988 ft | 516 kts | 1° |
| 2026-04-30 08:18 | 3.76505 | 114.87009 | 37779 ft | 511 kts | 1° |
| 2026-04-30 08:18 | 4.32768 | 114.87500 | 37660 ft | 502 kts | 1° |
| 2026-04-30 08:19 | 5.42327 | 114.87363 | 37659 ft | 485 kts | 0° |
| 2026-04-30 08:19 | 6.49391 | 114.85718 | 37837 ft | 477 kts | 0° |
| 2026-04-30 08:20 | 7.56788 | 114.84194 | 37993 ft | 488 kts | 0° |
| 2026-04-30 08:20 | 8.66649 | 114.82574 | 37870 ft | 497 kts | 359° |
| 2026-04-30 08:21 | 9.77367 | 114.80878 | 37868 ft | 499 kts | 359° |
| 2026-04-30 08:21 | 10.88150 | 114.78078 | 37906 ft | 501 kts | 358° |
| 2026-04-30 08:22 | 11.99726 | 114.74083 | 37866 ft | 501 kts | 356° |
| 2026-04-30 08:22 | 13.11241 | 114.70680 | 37894 ft | 502 kts | 356° |
| 2026-04-30 08:23 | 14.23708 | 114.67103 | 37938 ft | 504 kts | 355° |
| 2026-04-30 08:23 | 15.16749 | 114.64144 | 37913 ft | 504 kts | 355° |
| 2026-04-30 08:24 | 16.28566 | 114.60518 | 37957 ft | 493 kts | 356° |
| 2026-04-30 08:24 | 16.82730 | 114.58788 | 37837 ft | 482 kts | 355° |
| 2026-04-30 08:24 | 17.35971 | 114.57040 | 37826 ft | 474 kts | 355° |
| 2026-04-30 08:24 | 17.87901 | 114.55435 | 37964 ft | 474 kts | 354° |
| 2026-04-30 08:25 | 18.42107 | 114.56895 | 37766 ft | 517 kts | 12° |
| 2026-04-30 08:25 | 18.95866 | 114.69979 | 37741 ft | 492 kts | 7° |
| 2026-04-30 08:25 | 19.45312 | 114.66796 | 38263 ft | 462 kts | 352° |
| 2026-04-30 08:25 | 19.97900 | 114.62683 | 38494 ft | 490 kts | 350° |
| 2026-04-30 08:26 | 20.51428 | 114.58192 | 37966 ft | 491 kts | 350° |
| 2026-04-30 08:26 | 21.05703 | 114.55053 | 37714 ft | 497 kts | 357° |
| 2026-04-30 08:26 | 21.10376 | 114.55303 | 37817 ft | 486 kts | 357° |
| 2026-04-30 08:27 | 21.17029 | 114.55582 | 37938 ft | 474 kts | 355° |
| 2026-04-30 08:27 | 21.23640 | 114.55680 | 38008 ft | 477 kts | 354° |
| 2026-04-30 08:28 | 21.30306 | 114.55724 | 38013 ft | 486 kts | 355° |
| 2026-04-30 08:28 | 21.36932 | 114.55790 | 37981 ft | 461 kts | 354° |
| 2026-04-30 08:28 | 21.40084 | 114.55825 | 37975 ft | 446 kts | 354° |
| 2026-04-30 08:29 | 21.43139 | 114.55855 | 37979 ft | 431 kts | 354° |
| 2026-04-30 08:29 | 21.46090 | 114.55883 | 37988 ft | 416 kts | 354° |
| 2026-04-30 08:29 | 21.48945 | 114.55918 | 37815 ft | 406 kts | 356° |
| 2026-04-30 08:29 | 21.51762 | 114.56458 | 37140 ft | 421 kts | 14° |
| 2026-04-30 08:30 | 21.54437 | 114.57879 | 36331 ft | 439 kts | 30° |
| 2026-04-30 08:30 | 21.56755 | 114.60073 | 35674 ft | 451 kts | 46° |
| 2026-04-30 08:30 | 21.58488 | 114.62904 | 35051 ft | 460 kts | 63° |
| 2026-04-30 08:30 | 21.59512 | 114.66171 | 34475 ft | 464 kts | 81° |
| 2026-04-30 08:31 | 21.59583 | 114.69610 | 34025 ft | 460 kts | 99° |
| 2026-04-30 08:31 | 21.58702 | 114.72876 | 33586 ft | 451 kts | 119° |
| 2026-04-30 08:31 | 21.57033 | 114.75660 | 33202 ft | 439 kts | 135° |
| 2026-04-30 08:31 | 21.54853 | 114.77904 | 32810 ft | 428 kts | 147° |
| 2026-04-30 08:32 | 21.52361 | 114.79536 | 32395 ft | 414 kts | 164° |
| 2026-04-30 08:32 | 21.49653 | 114.80505 | 31975 ft | 407 kts | 168° |
| 2026-04-30 08:32 | 21.46978 | 114.81370 | 31534 ft | 405 kts | 168° |
| 2026-04-30 08:32 | 21.44281 | 114.82270 | 31135 ft | 404 kts | 167° |
| 2026-04-30 08:33 | 21.41617 | 114.83197 | 30758 ft | 401 kts | 167° |
| 2026-04-30 08:33 | 21.38980 | 114.84102 | 30384 ft | 393 kts | 171° |
| 2026-04-30 08:33 | 21.36304 | 114.84379 | 29871 ft | 382 kts | 190° |
| 2026-04-30 08:33 | 21.33730 | 114.83844 | 29428 ft | 371 kts | 203° |
| 2026-04-30 08:34 | 21.31396 | 114.82751 | 29066 ft | 361 kts | 214° |
| 2026-04-30 08:34 | 21.29391 | 114.81239 | 28668 ft | 353 kts | 225° |
| 2026-04-30 08:34 | 21.27771 | 114.79337 | 28435 ft | 341 kts | 238° |
| 2026-04-30 08:34 | 21.26586 | 114.77194 | 28257 ft | 327 kts | 241° |
| 2026-04-30 08:35 | 21.25158 | 114.75320 | 27996 ft | 325 kts | 224° |
| 2026-04-30 08:35 | 21.23548 | 114.73612 | 26965 ft | 331 kts | 239° |
| 2026-04-30 08:35 | 21.22714 | 114.71226 | 25684 ft | 365 kts | 265° |
| 2026-04-30 08:35 | 21.23029 | 114.68485 | 24770 ft | 381 kts | 290° |
| 2026-04-30 08:36 | 21.24495 | 114.66127 | 24385 ft | 383 kts | 314° |
| 2026-04-30 08:36 | 21.26761 | 114.64654 | 24204 ft | 383 kts | 336° |
| 2026-04-30 08:36 | 21.29288 | 114.63885 | 24069 ft | 371 kts | 339° |
| 2026-04-30 08:36 | 21.31667 | 114.63044 | 23946 ft | 359 kts | 336° |
| 2026-04-30 08:37 | 21.33988 | 114.62133 | 23809 ft | 349 kts | 335° |
| 2026-04-30 08:37 | 21.36233 | 114.61236 | 23501 ft | 338 kts | 335° |
| 2026-04-30 08:37 | 21.38434 | 114.60362 | 22763 ft | 336 kts | 335° |
| 2026-04-30 08:37 | 21.40626 | 114.59497 | 21852 ft | 338 kts | 335° |
| 2026-04-30 08:38 | 21.42881 | 114.58613 | 20594 ft | 351 kts | 335° |
| 2026-04-30 08:38 | 21.45214 | 114.57705 | 19509 ft | 359 kts | 336° |
| 2026-04-30 08:38 | 21.47544 | 114.56805 | 18607 ft | 360 kts | 336° |
| 2026-04-30 08:38 | 21.49899 | 114.55898 | 17628 ft | 359 kts | 336° |
| 2026-04-30 08:39 | 21.52248 | 114.54993 | 16691 ft | 357 kts | 336° |
| 2026-04-30 08:39 | 21.54572 | 114.54098 | 15849 ft | 352 kts | 336° |
| 2026-04-30 08:39 | 21.56862 | 114.53214 | 15048 ft | 347 kts | 336° |
| 2026-04-30 08:39 | 21.59116 | 114.52343 | 14274 ft | 342 kts | 336° |
| 2026-04-30 08:40 | 21.61338 | 114.51468 | 13547 ft | 338 kts | 336° |
| 2026-04-30 08:40 | 21.63566 | 114.50582 | 13298 ft | 346 kts | 336° |
| 2026-04-30 08:40 | 21.65829 | 114.49679 | 13118 ft | 344 kts | 335° |
| 2026-04-30 08:40 | 21.67926 | 114.48546 | 13014 ft | 332 kts | 321° |
| 2026-04-30 08:41 | 21.69644 | 114.46931 | 13016 ft | 325 kts | 310° |
| 2026-04-30 08:41 | 21.71068 | 114.45082 | 13010 ft | 326 kts | 304° |
| 2026-04-30 08:41 | 21.72440 | 114.43134 | 12955 ft | 327 kts | 304° |
| 2026-04-30 08:41 | 21.73804 | 114.41182 | 12609 ft | 326 kts | 304° |
| 2026-04-30 08:42 | 21.75167 | 114.39229 | 12206 ft | 324 kts | 304° |
| 2026-04-30 08:42 | 21.76519 | 114.37298 | 11828 ft | 321 kts | 304° |
| 2026-04-30 08:42 | 21.77862 | 114.35385 | 11394 ft | 320 kts | 304° |
| 2026-04-30 08:42 | 21.79201 | 114.33479 | 10974 ft | 318 kts | 304° |
| 2026-04-30 08:43 | 21.80518 | 114.31607 | 10589 ft | 317 kts | 304° |
| 2026-04-30 08:43 | 21.81844 | 114.29723 | 10205 ft | 315 kts | 304° |
| 2026-04-30 08:43 | 21.83166 | 114.27844 | 9797 ft | 314 kts | 304° |
| 2026-04-30 08:43 | 21.84483 | 114.25972 | 9356 ft | 312 kts | 304° |
| 2026-04-30 08:44 | 21.85904 | 114.23953 | 8930 ft | 310 kts | 304° |
| 2026-04-30 08:44 | 21.88490 | 114.20277 | 8136 ft | 307 kts | 304° |
| 2026-04-30 08:44 | 21.90810 | 114.16472 | 7381 ft | 302 kts | 297° |
| 2026-04-30 08:44 | 21.92795 | 114.12504 | 6643 ft | 298 kts | 296° |
| 2026-04-30 08:45 | 21.94757 | 114.08607 | 6069 ft | 297 kts | 297° |
| 2026-04-30 08:45 | 21.96743 | 114.04718 | 5999 ft | 295 kts | 298° |
| 2026-04-30 08:45 | 21.98712 | 114.00888 | 6031 ft | 298 kts | 298° |
| 2026-04-30 08:45 | 22.00731 | 113.96968 | 6010 ft | 299 kts | 298° |
| 2026-04-30 08:46 | 22.02759 | 113.93033 | 6011 ft | 301 kts | 298° |
| 2026-04-30 08:46 | 22.04763 | 113.89141 | 5576 ft | 295 kts | 298° |
| 2026-04-30 08:46 | 22.06439 | 113.85884 | 4932 ft | 292 kts | 298° |
| 2026-04-30 08:46 | 22.07420 | 113.83977 | 4537 ft | 291 kts | 299° |
| 2026-04-30 08:47 | 22.08404 | 113.82063 | 4093 ft | 292 kts | 300° |
| 2026-04-30 08:47 | 22.09391 | 113.80143 | 3658 ft | 293 kts | 300° |
| 2026-04-30 08:47 | 22.10421 | 113.78258 | 3193 ft | 287 kts | 310° |
| 2026-04-30 08:47 | 22.11939 | 113.76921 | 2999 ft | 283 kts | 334° |
| 2026-04-30 08:48 | 22.13706 | 113.76070 | 3058 ft | 279 kts | 338° |
| 2026-04-30 08:48 | 22.15480 | 113.75196 | 2956 ft | 287 kts | 336° |
| 2026-04-30 08:48 | 22.17313 | 113.74280 | 2854 ft | 290 kts | 336° |
| 2026-04-30 08:48 | 22.19142 | 113.73481 | 2866 ft | 278 kts | 350° |
| 2026-04-30 08:49 | 22.21070 | 113.73643 | 2600 ft | 282 kts | 23° |
| 2026-04-30 08:49 | 22.22708 | 113.74720 | 2658 ft | 272 kts | 34° |
| 2026-04-30 08:49 | 22.24284 | 113.75866 | 2539 ft | 273 kts | 35° |
| 2026-04-30 08:49 | 22.25640 | 113.77286 | 2451 ft | 273 kts | 54° |
| 2026-04-30 08:50 | 22.26437 | 113.79147 | 2269 ft | 271 kts | 71° |
| 2026-04-30 08:50 | 22.26894 | 113.81100 | 1896 ft | 264 kts | 76° |
| 2026-04-30 08:50 | 22.27270 | 113.82951 | 1638 ft | 240 kts | 72° |
| 2026-04-30 08:50 | 22.27828 | 113.84581 | 1230 ft | 222 kts | 65° |
| 2026-04-30 08:51 | 22.28361 | 113.86004 | 979 ft | 196 kts | 68° |
| 2026-04-30 08:51 | 22.28797 | 113.87321 | 654 ft | 176 kts | 68° |
| 2026-04-30 08:51 | 22.29188 | 113.88499 | 313 ft | 154 kts | 68° |
| 2026-04-30 08:51 | 22.29529 | 113.89548 | 164 ft | 147 kts | 68° |
| 2026-04-30 08:52 | 22.29871 | 113.90599 | 51 ft | 145 kts | 68° |
| 2026-04-30 08:52 | 22.30176 | 113.91519 | 38 ft | 114 kts | 73° |
| 2026-04-30 08:52 | 22.30382 | 113.92170 | 38 ft | 69 kts | 70° |
| 2026-04-30 08:52 | 22.30494 | 113.92501 | 38 ft | 25 kts | 69° |
| 2026-04-30 08:53 | 22.30535 | 113.92622 | 38 ft | 16 kts | 71° |
| 2026-04-30 08:53 | 22.30570 | 113.92737 | 38 ft | 16 kts | 71° |
| 2026-04-30 08:53 | 22.30624 | 113.92838 | 39 ft | 16 kts | 21° |
| 2026-04-30 08:53 | 22.30738 | 113.92820 | 37 ft | 17 kts | 342° |
| 2026-04-30 08:54 | 22.30849 | 113.92778 | 37 ft | 17 kts | 340° |
| 2026-04-30 08:54 | 22.30966 | 113.92781 | 37 ft | 17 kts | 13° |
| 2026-04-30 08:54 | 22.31048 | 113.92818 | 37 ft | 0 kts | 30° |
| 2026-04-30 08:54 | 22.31052 | 113.92821 | 37 ft | 1 kts | 31° |
| 2026-04-30 08:55 | 22.31063 | 113.92829 | 37 ft | 2 kts | 33° |
| 2026-04-30 08:55 | 22.31080 | 113.92840 | 36 ft | 3 kts | 30° |
| 2026-04-30 08:55 | 22.31104 | 113.92854 | 37 ft | 4 kts | 28° |
| 2026-04-30 08:55 | 22.31134 | 113.92872 | 37 ft | 5 kts | 28° |
| 2026-04-30 08:56 | 22.31164 | 113.92897 | 37 ft | 6 kts | 50° |
| 2026-04-30 08:56 | 22.31185 | 113.92937 | 37 ft | 7 kts | 65° |
| 2026-04-30 08:56 | 22.31204 | 113.92986 | 37 ft | 7 kts | 56° |
| 2026-04-30 08:56 | 22.31254 | 113.92988 | 37 ft | 7 kts | 346° |
| 2026-04-30 08:57 | 22.31268 | 113.92984 | 37 ft | 2 kts | 344° |
| 2026-04-30 08:57 | 22.31287 | 113.92978 | 37 ft | 2 kts | 343° |
| 2026-04-30 08:57 | 22.31295 | 113.92975 | 37 ft | 2 kts | 342° |
| 2026-04-30 08:57 | 22.31296 | 113.92975 | 37 ft | 0 kts | 342° |